createdAt,value
2023-12-23T00:03:02.219Z,4.13
2023-12-23T00:08:08.348Z,4.65
2023-12-23T00:13:12.863Z,7.15
2023-12-23T00:18:17.594Z,3.83
2023-12-23T00:23:23.817Z,3.50
2023-12-23T00:28:28.276Z,4.80
2023-12-23T00:33:32.671Z,14.85
2023-12-23T00:38:38.570Z,15.82
2023-12-23T00:43:43.055Z,19.90
2023-12-23T00:48:48.205Z,3.35
2023-12-23T00:53:54.045Z,3.22
2023-12-23T00:58:58.478Z,3.45
2023-12-23T01:04:03.106Z,3.28
2023-12-23T01:09:09.092Z,8.57
2023-12-23T01:14:13.729Z,3.38
2023-12-23T01:19:18.208Z,3.55
2023-12-23T01:24:24.144Z,2.05
2023-12-23T01:29:29.259Z,2.78
2023-12-23T01:34:33.637Z,3.03
2023-12-23T01:39:39.599Z,2.97
2023-12-23T01:44:43.947Z,4.30
2023-12-23T01:49:50.169Z,2.10
2023-12-23T01:54:56.052Z,2.70
2023-12-23T02:00:00.851Z,2.53
2023-12-23T02:05:05.850Z,2.00
2023-12-23T02:10:12.114Z,1.95
2023-12-23T02:15:18.231Z,2.67
2023-12-23T02:20:22.804Z,1.65
2023-12-23T02:25:28.770Z,2.20
2023-12-23T02:30:35.480Z,2.40
2023-12-23T02:35:40.011Z,2.38
2023-12-23T02:40:45.904Z,3.22
2023-12-23T02:45:50.296Z,3.75
2023-12-23T02:50:54.744Z,3.30
2023-12-23T02:56:01.163Z,4.57
2023-12-23T03:01:08.697Z,3.83
2023-12-23T03:06:16.033Z,3.30
2023-12-23T03:11:22.045Z,3.88
2023-12-23T03:16:29.254Z,2.70
2023-12-23T03:21:33.806Z,6.00
2023-12-23T03:26:39.947Z,2.85
2023-12-23T03:31:44.327Z,3.13
2023-12-23T03:36:48.758Z,3.97
2023-12-23T03:41:54.573Z,2.33
2023-12-23T03:46:59.058Z,2.58
2023-12-23T03:52:03.638Z,2.45
2023-12-23T03:57:09.903Z,3.20
2023-12-23T04:02:15.066Z,2.20
2023-12-23T04:07:19.591Z,6.63
2023-12-23T04:12:25.403Z,3.33
2023-12-23T04:17:29.887Z,3.17
2023-12-23T04:22:34.289Z,2.22
2023-12-23T04:27:40.175Z,1.63
2023-12-23T04:32:45.454Z,1.50
2023-12-23T04:37:50.514Z,2.42
2023-12-23T04:42:56.699Z,1.90
2023-12-23T04:48:01.635Z,1.75
2023-12-23T04:53:06.489Z,1.40
2023-12-23T04:58:12.290Z,2.17
2023-12-23T05:03:16.773Z,2.90
2023-12-23T05:08:21.960Z,2.97
2023-12-23T05:13:27.796Z,2.60
2023-12-23T05:18:32.348Z,2.80
2023-12-23T05:23:36.825Z,2.72
2023-12-23T05:28:42.751Z,3.35
2023-12-23T05:33:48.590Z,2.03
2023-12-23T05:38:53.067Z,2.20
2023-12-23T05:43:58.953Z,2.20
2023-12-23T05:49:03.376Z,2.08
2023-12-23T05:54:07.869Z,1.98
2023-12-23T05:59:14.055Z,1.67
2023-12-23T06:04:18.876Z,1.80
2023-12-23T06:09:23.334Z,1.38
2023-12-23T06:14:29.098Z,1.48
2023-12-23T06:19:33.526Z,1.55
2023-12-23T06:24:38.135Z,2.30
2023-12-23T06:29:43.972Z,2.50
2023-12-23T06:34:48.376Z,2.42
2023-12-23T06:39:52.824Z,3.15
2023-12-23T06:44:58.661Z,3.35
2023-12-23T06:50:03.381Z,3.58
2023-12-23T06:55:08.412Z,4.57
2023-12-23T07:00:16.150Z,3.40
2023-12-23T07:05:20.764Z,3.70
2023-12-23T07:10:25.223Z,3.78
2023-12-23T07:15:34.477Z,5.35
2023-12-23T07:20:41.165Z,5.72
2023-12-23T07:25:45.777Z,5.32
2023-12-23T07:30:52.240Z,10.88
2023-12-23T07:35:56.812Z,6.40
2023-12-23T07:41:01.415Z,4.38
2023-12-23T07:46:07.643Z,16.02
2023-12-23T07:51:12.330Z,2.70
2023-12-23T07:56:16.943Z,4.00
2023-12-23T08:01:23.066Z,8.32
2023-12-23T08:06:27.620Z,10.05
2023-12-23T08:11:32.143Z,5.75
2023-12-23T08:16:38.045Z,2.65
2023-12-23T08:21:42.530Z,3.80
2023-12-23T08:26:47.060Z,3.72
2023-12-23T08:31:53.863Z,2.45
2023-12-23T08:36:58.587Z,4.97
2023-12-23T08:42:03.753Z,9.05
2023-12-23T08:47:09.747Z,12.95
2023-12-23T08:52:14.158Z,8.52
2023-12-23T08:57:18.627Z,5.43
2023-12-23T09:02:27.862Z,5.88
2023-12-23T09:07:35.205Z,4.70
2023-12-23T09:12:40.866Z,5.07
2023-12-23T09:17:47.321Z,6.70
2023-12-23T09:22:52.176Z,5.97
2023-12-23T09:27:56.651Z,9.93
2023-12-23T09:33:02.613Z,6.68
2023-12-23T09:38:07.178Z,11.00
2023-12-23T09:43:12.076Z,6.18
2023-12-23T09:48:18.090Z,10.27
2023-12-23T09:53:24.344Z,8.90
2023-12-23T09:58:29.224Z,5.57
2023-12-23T10:03:35.275Z,3.95
2023-12-23T10:08:41.460Z,9.48
2023-12-23T10:13:45.983Z,10.35
2023-12-23T10:18:51.921Z,9.65
2023-12-23T10:23:56.564Z,10.02
2023-12-23T10:29:06.275Z,12.23
2023-12-23T10:34:14.727Z,13.77
2023-12-23T10:39:25.395Z,11.40
2023-12-23T10:44:31.881Z,10.10
2023-12-23T10:49:38.310Z,11.20
2023-12-23T10:54:43.831Z,14.30
2023-12-23T10:59:48.481Z,26.17
2023-12-23T11:04:56.464Z,14.02
2023-12-23T11:10:03.177Z,11.43
2023-12-23T11:15:08.872Z,14.10
2023-12-23T11:20:46.936Z,11.88
2023-12-23T11:25:52.924Z,12.27
2023-12-23T11:30:59.397Z,11.93
2023-12-23T11:36:04.798Z,15.45
2023-12-23T11:41:10.893Z,8.85
2023-12-23T11:46:15.500Z,11.98
2023-12-23T11:51:20.127Z,10.82
2023-12-23T11:56:26.035Z,11.10
2023-12-23T12:01:31.109Z,7.85
2023-12-23T12:06:36.036Z,12.95
2023-12-23T12:11:42.170Z,10.02
2023-12-23T12:16:46.738Z,8.43
2023-12-23T12:21:51.250Z,6.72
2023-12-23T12:26:59.316Z,9.73
2023-12-23T12:32:04.508Z,10.13
2023-12-23T12:37:10.465Z,6.45
2023-12-23T12:42:17.127Z,9.75
2023-12-23T12:47:22.412Z,13.30
2023-12-23T12:52:27.998Z,16.35
2023-12-23T12:57:34.418Z,7.82
2023-12-23T13:02:39.383Z,10.85
2023-12-23T13:07:43.844Z,14.50
2023-12-23T13:12:50.409Z,16.90
2023-12-23T13:17:56.086Z,21.52
2023-12-23T13:23:00.618Z,20.40
2023-12-23T13:28:07.082Z,19.52
2023-12-23T13:33:11.704Z,23.48
2023-12-23T13:38:16.132Z,31.30
2023-12-23T13:43:21.959Z,26.13
2023-12-23T13:48:29.430Z,27.20
2023-12-23T13:53:34.082Z,25.67
2023-12-23T13:58:40.175Z,28.08
2023-12-23T14:03:45.483Z,66.28
2023-12-23T14:08:50.086Z,32.95
2023-12-23T14:13:56.194Z,36.45
2023-12-23T14:19:00.765Z,32.47
2023-12-23T14:24:06.279Z,43.40
2023-12-23T14:29:12.226Z,34.38
2023-12-23T14:34:16.772Z,40.72
2023-12-23T14:39:24.553Z,43.28
2023-12-23T14:44:31.055Z,38.80
2023-12-23T14:49:36.004Z,19.58
2023-12-23T14:54:40.391Z,33.55
2023-12-23T14:59:46.304Z,36.13
2023-12-23T15:04:50.779Z,26.98
2023-12-23T15:09:55.333Z,31.15
2023-12-23T15:15:01.203Z,40.38
2023-12-23T15:20:07.357Z,34.22
2023-12-23T15:25:12.160Z,30.25
2023-12-23T15:30:19.361Z,25.10
2023-12-23T15:35:23.904Z,38.53
2023-12-23T15:40:28.353Z,33.28
2023-12-23T15:45:34.117Z,30.23
2023-12-23T15:50:38.741Z,24.98
2023-12-23T15:55:43.294Z,29.98
2023-12-23T16:00:49.222Z,34.65
2023-12-23T16:05:53.851Z,39.25
2023-12-23T16:10:58.437Z,28.88
2023-12-23T16:16:04.726Z,35.67
2023-12-23T16:21:09.257Z,55.60
2023-12-23T16:26:18.564Z,102.45
2023-12-23T16:31:24.946Z,28.83
2023-12-23T16:36:29.436Z,33.97
2023-12-23T16:41:33.944Z,22.77
2023-12-23T16:46:39.836Z,34.13
2023-12-23T16:51:44.334Z,47.83
2023-12-23T16:56:48.789Z,41.75
2023-12-23T17:01:54.708Z,31.20
2023-12-23T17:06:59.247Z,43.58
2023-12-23T17:12:04.783Z,22.60
2023-12-23T17:17:10.961Z,22.95
2023-12-23T17:22:15.462Z,17.35
2023-12-23T17:27:20.077Z,15.70
2023-12-23T17:32:27.936Z,17.83
2023-12-23T17:37:32.419Z,22.88
2023-12-23T17:42:37.014Z,26.40
2023-12-23T17:47:43.162Z,17.42
2023-12-23T17:52:47.744Z,20.50
2023-12-23T17:57:52.214Z,22.27
2023-12-23T18:02:58.443Z,27.90
2023-12-23T18:08:03.386Z,23.83
2023-12-23T18:13:09.410Z,25.10
2023-12-23T18:18:15.372Z,22.05
2023-12-23T18:23:20.006Z,26.27
2023-12-23T18:28:24.419Z,23.40
2023-12-23T18:33:30.493Z,24.42
2023-12-23T18:38:35.103Z,28.33
2023-12-23T18:43:39.629Z,24.85
2023-12-23T18:48:45.460Z,44.13
2023-12-23T18:53:49.990Z,20.23
2023-12-23T18:58:54.344Z,22.85
2023-12-23T19:04:02.269Z,18.95
2023-12-23T19:09:06.887Z,21.27
2023-12-23T19:14:11.348Z,15.57
2023-12-23T19:19:17.317Z,19.70
2023-12-23T19:24:21.836Z,18.80
2023-12-23T19:29:26.303Z,22.10
2023-12-23T19:34:32.082Z,19.85
2023-12-23T19:39:36.431Z,20.67
2023-12-23T19:44:40.738Z,17.88
2023-12-23T19:49:46.506Z,21.98
2023-12-23T19:54:50.758Z,17.85
2023-12-23T19:59:55.109Z,23.70
2023-12-23T20:05:00.976Z,23.60
2023-12-23T20:10:06.242Z,19.73
2023-12-23T20:15:11.841Z,19.33
2023-12-23T20:20:17.690Z,15.55
2023-12-23T20:25:22.123Z,17.60
2023-12-23T20:30:26.551Z,16.63
2023-12-23T20:35:32.514Z,14.95
2023-12-23T20:40:36.847Z,17.38
2023-12-23T20:45:41.220Z,17.45
2023-12-23T20:50:48.665Z,20.60
2023-12-23T20:55:53.113Z,17.05
2023-12-23T21:00:57.589Z,15.38
2023-12-23T21:06:03.482Z,16.05
2023-12-23T21:11:07.925Z,17.83
2023-12-23T21:16:12.338Z,19.17
2023-12-23T21:21:18.066Z,19.92
2023-12-23T21:26:24.461Z,17.15
2023-12-23T21:31:28.938Z,19.48
2023-12-23T21:36:35.015Z,19.55
2023-12-23T21:41:39.708Z,22.20
2023-12-23T21:46:44.137Z,24.67
2023-12-23T21:51:50.036Z,25.38
2023-12-23T21:56:54.473Z,24.13
2023-12-23T22:01:58.899Z,18.38
2023-12-23T22:07:04.730Z,19.67
2023-12-23T22:12:09.849Z,24.52
2023-12-23T22:17:14.351Z,21.67
2023-12-23T22:22:20.211Z,24.70
2023-12-23T22:27:24.576Z,22.23
2023-12-23T22:32:28.944Z,25.15
2023-12-23T22:37:34.885Z,24.17
2023-12-23T22:42:40.039Z,25.85
2023-12-23T22:47:44.916Z,21.10
2023-12-23T22:52:50.844Z,26.25
2023-12-23T22:57:55.349Z,25.73
2023-12-23T23:03:01.011Z,23.13
2023-12-23T23:08:08.205Z,19.75
2023-12-23T23:13:12.587Z,18.65
2023-12-23T23:18:17.314Z,18.55
2023-12-23T23:23:23.388Z,21.73
2023-12-23T23:28:27.761Z,17.50
2023-12-23T23:33:32.164Z,16.45
2023-12-23T23:38:38.116Z,17.17
2023-12-23T23:43:42.648Z,13.10
2023-12-23T23:48:47.475Z,11.80
2023-12-23T23:53:53.891Z,12.23
2023-12-23T23:58:58.997Z,13.35
